createdAt,value
2018-11-29T00:02:17.518Z,99366.71
2018-11-29T00:04:49.250Z,99365.59
2018-11-29T00:07:19.987Z,99365.78
2018-11-29T00:09:52.157Z,99366.69
2018-11-29T00:12:22.945Z,99360.37
2018-11-29T00:14:54.062Z,99358.15
2018-11-29T00:17:24.891Z,99361.70
2018-11-29T00:19:55.779Z,99360.90
2018-11-29T00:22:26.913Z,99360.78
2018-11-29T00:24:57.779Z,99357.91
2018-11-29T00:27:28.599Z,99358.29
2018-11-29T00:29:59.370Z,99359.07
2018-11-29T00:32:30.031Z,99351.78
2018-11-29T00:35:00.966Z,99356.05
2018-11-29T00:37:32.061Z,99355.84
2018-11-29T00:40:02.867Z,99350.00
2018-11-29T00:42:33.848Z,99358.05
2018-11-29T00:45:05.065Z,99360.23
2018-11-29T00:47:35.888Z,99363.73
2018-11-29T00:50:10.304Z,99370.11
2018-11-29T00:52:42.224Z,99378.02
2018-11-29T00:55:15.623Z,99378.75
2018-11-29T00:57:46.594Z,99379.44
2018-11-29T01:00:19.531Z,99381.97
2018-11-29T01:02:50.393Z,99382.77
2018-11-29T01:05:21.042Z,99377.33
2018-11-29T01:07:51.866Z,99375.56
2018-11-29T01:10:22.617Z,99392.46
2018-11-29T01:12:53.459Z,99392.78
2018-11-29T01:15:24.417Z,99395.80
2018-11-29T01:17:55.305Z,99405.53
2018-11-29T01:20:26.064Z,99399.55
2018-11-29T01:22:56.844Z,99409.71
2018-11-29T01:25:27.670Z,99411.47
2018-11-29T01:27:58.451Z,99410.08
2018-11-29T01:30:29.340Z,99411.66
2018-11-29T01:32:59.981Z,99432.86
2018-11-29T01:35:30.647Z,99428.86
2018-11-29T01:38:01.428Z,99419.73
2018-11-29T01:40:32.334Z,99408.66
2018-11-29T01:43:03.068Z,99418.91
2018-11-29T01:45:33.800Z,99414.75
2018-11-29T01:48:04.698Z,99408.42
2018-11-29T01:50:35.330Z,99409.59
2018-11-29T01:53:06.289Z,99396.61
2018-11-29T01:55:37.115Z,99405.76
2018-11-29T01:58:07.797Z,99408.02
2018-11-29T02:00:38.647Z,99411.97
2018-11-29T02:03:10.018Z,99413.81
2018-11-29T02:05:41.237Z,99418.11
2018-11-29T02:08:12.286Z,99419.52
2018-11-29T02:10:48.430Z,99426.03
2018-11-29T02:13:19.912Z,99426.37
2018-11-29T02:15:50.946Z,99426.34
2018-11-29T02:18:21.906Z,99436.87
2018-11-29T02:20:59.560Z,99440.56
2018-11-29T02:23:30.294Z,99440.56
2018-11-29T02:26:01.779Z,99442.41
2018-11-29T02:28:32.745Z,99446.75
2018-11-29T02:31:03.840Z,99443.42
2018-11-29T02:33:34.583Z,99443.05
2018-11-29T02:36:05.557Z,99442.09
2018-11-29T02:38:36.840Z,99438.16
2018-11-29T02:41:08.588Z,99435.09
2018-11-29T02:43:39.563Z,99434.23
2018-11-29T02:46:10.633Z,99431.24
2018-11-29T02:48:41.569Z,99434.03
2018-11-29T02:51:12.519Z,99433.12
2018-11-29T02:53:43.355Z,99429.73
2018-11-29T02:56:14.245Z,99428.86
2018-11-29T02:58:44.971Z,99430.49
2018-11-29T03:01:15.828Z,99425.88
2018-11-29T03:03:46.921Z,99425.45
2018-11-29T03:06:17.742Z,99426.79
2018-11-29T03:08:48.543Z,99430.61
2018-11-29T03:11:19.384Z,99426.36
2018-11-29T03:13:50.230Z,99424.59
2018-11-29T03:16:21.358Z,99414.83
2018-11-29T03:18:51.989Z,99419.17
2018-11-29T03:21:22.601Z,99412.67
2018-11-29T03:23:53.403Z,99421.48
2018-11-29T03:26:24.160Z,99431.31
2018-11-29T03:28:54.945Z,99426.87
2018-11-29T03:31:25.940Z,99423.52
2018-11-29T03:33:56.722Z,99422.43
2018-11-29T03:36:27.612Z,99416.86
2018-11-29T03:38:58.455Z,99410.47
2018-11-29T03:41:29.521Z,99419.77
2018-11-29T03:44:00.491Z,99419.95
2018-11-29T03:46:31.389Z,99426.25
2018-11-29T03:49:02.075Z,99431.29
2018-11-29T03:51:32.771Z,99429.45
2018-11-29T03:54:03.531Z,99428.64
2018-11-29T03:56:34.136Z,99429.63
2018-11-29T03:59:04.824Z,99437.41
2018-11-29T04:01:35.510Z,99438.27
2018-11-29T04:04:06.457Z,99441.98
2018-11-29T04:06:37.347Z,99437.09
2018-11-29T04:09:11.973Z,99438.66
2018-11-29T04:11:42.822Z,99442.31
2018-11-29T04:14:13.639Z,99450.94
2018-11-29T04:16:44.386Z,99444.84
2018-11-29T04:19:15.299Z,99448.77
2018-11-29T04:21:46.079Z,99454.81
2018-11-29T04:24:17.155Z,99451.83
2018-11-29T04:26:47.995Z,99461.19
2018-11-29T04:29:18.648Z,99460.63
2018-11-29T04:31:49.526Z,99471.46
2018-11-29T04:34:20.340Z,99466.44
2018-11-29T04:36:51.177Z,99460.16
2018-11-29T04:39:22.076Z,99467.10
2018-11-29T04:41:52.897Z,99468.08
2018-11-29T04:44:23.857Z,99474.30
2018-11-29T04:46:55.459Z,99481.64
2018-11-29T04:49:26.444Z,99484.22
2018-11-29T04:51:58.471Z,99481.42
2018-11-29T04:54:30.363Z,99483.62
2018-11-29T04:57:01.799Z,99480.59
2018-11-29T04:59:33.188Z,99485.20
2018-11-29T05:02:04.237Z,99485.41
2018-11-29T05:04:35.412Z,99492.86
2018-11-29T05:07:06.448Z,99492.19
2018-11-29T05:09:37.416Z,99495.05
2018-11-29T05:12:08.182Z,99487.91
2018-11-29T05:14:39.102Z,99486.70
2018-11-29T05:17:09.827Z,99485.47
2018-11-29T05:19:40.999Z,99491.45
2018-11-29T05:22:12.224Z,99496.38
2018-11-29T05:24:43.108Z,99503.34
2018-11-29T05:27:14.204Z,99505.69
2018-11-29T05:29:45.144Z,99507.31
2018-11-29T05:32:16.072Z,99517.07
2018-11-29T05:34:46.962Z,99513.59
2018-11-29T05:37:18.440Z,99508.59
2018-11-29T05:39:49.409Z,99509.28
2018-11-29T05:42:20.202Z,99506.93
2018-11-29T05:44:51.239Z,99507.48
2018-11-29T05:47:22.132Z,99514.86
2018-11-29T05:49:52.942Z,99512.55
2018-11-29T05:52:23.647Z,99511.73
2018-11-29T05:54:54.607Z,99522.23
2018-11-29T05:57:25.468Z,99514.16
2018-11-29T05:59:56.855Z,99509.54
2018-11-29T06:02:27.764Z,99511.30
2018-11-29T06:04:58.823Z,99511.73
2018-11-29T06:07:29.536Z,99498.82
2018-11-29T06:10:01.022Z,99504.34
2018-11-29T06:12:31.899Z,99508.72
2018-11-29T06:15:02.795Z,99510.52
2018-11-29T06:17:33.765Z,99515.19
2018-11-29T06:20:04.604Z,99519.83
2018-11-29T06:22:35.285Z,99523.64
2018-11-29T06:25:06.561Z,99522.01
2018-11-29T06:27:37.616Z,99527.84
2018-11-29T06:30:18.640Z,99528.11
2018-11-29T06:32:50.141Z,99522.32
2018-11-29T06:35:20.960Z,99522.55
2018-11-29T06:37:51.943Z,99529.48
2018-11-29T06:40:23.037Z,99524.29
2018-11-29T06:42:53.752Z,99528.61
2018-11-29T06:45:24.729Z,99526.27
2018-11-29T06:47:55.605Z,99523.47
2018-11-29T06:50:26.725Z,99526.18
2018-11-29T06:52:57.786Z,99522.95
2018-11-29T06:55:28.570Z,99531.22
2018-11-29T06:57:59.788Z,99530.09
2018-11-29T07:00:31.843Z,99534.28
2018-11-29T07:03:02.973Z,99542.48
2018-11-29T07:05:34.230Z,99540.33
2018-11-29T07:08:05.210Z,99531.55
2018-11-29T07:10:36.720Z,99542.67
2018-11-29T07:13:09.178Z,99543.87
2018-11-29T07:15:40.155Z,99548.52
2018-11-29T07:18:11.200Z,99546.80
2018-11-29T07:20:42.123Z,99543.52
2018-11-29T07:23:13.054Z,99553.61
2018-11-29T07:25:44.012Z,99551.93
2018-11-29T07:28:14.810Z,99556.83
2018-11-29T07:30:45.645Z,99557.28
2018-11-29T07:33:16.797Z,99554.88
2018-11-29T07:35:47.701Z,99553.56
2018-11-29T07:38:18.723Z,99547.52
2018-11-29T07:40:49.769Z,99548.66
2018-11-29T07:43:20.606Z,99550.09
2018-11-29T07:45:51.654Z,99549.69
2018-11-29T07:48:22.753Z,99556.06
2018-11-29T07:50:53.768Z,99559.90
2018-11-29T07:53:24.770Z,99559.89
2018-11-29T07:55:55.867Z,99550.09
2018-11-29T07:58:26.933Z,99551.14
2018-11-29T08:00:58.595Z,99552.09
2018-11-29T08:03:29.444Z,99554.78
2018-11-29T08:06:00.487Z,99561.14
2018-11-29T08:08:31.617Z,99551.80
2018-11-29T08:11:02.476Z,99546.70
2018-11-29T08:13:33.294Z,99542.98
2018-11-29T08:16:04.622Z,99538.72
2018-11-29T08:18:35.744Z,99544.30
2018-11-29T08:21:06.814Z,99543.22
2018-11-29T08:23:37.711Z,99541.33
2018-11-29T08:26:08.781Z,99538.80
2018-11-29T08:28:39.879Z,99542.55
2018-11-29T08:31:12.597Z,99541.97
2018-11-29T08:33:43.381Z,99546.78
2018-11-29T08:36:14.957Z,99549.52
2018-11-29T08:38:46.520Z,99553.42
2018-11-29T08:41:17.655Z,99544.97
2018-11-29T08:43:48.838Z,99553.54
2018-11-29T08:46:19.664Z,99546.93
2018-11-29T08:48:51.232Z,99535.21
2018-11-29T08:51:22.259Z,99538.02
2018-11-29T08:53:54.145Z,99532.41
2018-11-29T08:56:25.435Z,99530.04
2018-11-29T08:58:56.802Z,99533.63
2018-11-29T09:01:28.153Z,99534.25
2018-11-29T09:03:59.535Z,99538.13
2018-11-29T09:06:30.939Z,99536.50
2018-11-29T09:09:02.240Z,99540.64
2018-11-29T09:11:33.071Z,99542.83
2018-11-29T09:14:04.330Z,99538.72
2018-11-29T09:16:36.353Z,99537.98
2018-11-29T09:19:07.257Z,99549.97
2018-11-29T09:21:38.408Z,99542.96
2018-11-29T09:24:10.135Z,99542.80
2018-11-29T09:26:41.557Z,99542.91
2018-11-29T09:29:13.828Z,99541.78
2018-11-29T09:31:44.583Z,99537.42
2018-11-29T09:34:15.412Z,99528.27
2018-11-29T09:36:46.833Z,99533.48
2018-11-29T09:39:17.825Z,99530.06
2018-11-29T09:41:49.047Z,99531.34
2018-11-29T09:44:19.778Z,99522.92
2018-11-29T09:46:51.019Z,99520.30
2018-11-29T09:49:22.573Z,99514.39
2018-11-29T09:51:53.505Z,99510.47
2018-11-29T09:54:25.617Z,99512.50
2018-11-29T09:56:56.859Z,99505.50
2018-11-29T09:59:27.680Z,99506.20
2018-11-29T10:01:58.459Z,99505.44
2018-11-29T10:04:29.884Z,99503.30
2018-11-29T10:07:00.735Z,99503.85
2018-11-29T10:09:32.115Z,99501.38
2018-11-29T10:12:03.487Z,99500.88
2018-11-29T10:14:34.552Z,99500.72
2018-11-29T10:17:05.857Z,99485.17
2018-11-29T10:19:36.619Z,99486.33
2018-11-29T10:22:08.126Z,99482.72
2018-11-29T10:24:39.214Z,99487.23
2018-11-29T10:27:10.710Z,99481.61
2018-11-29T10:29:41.741Z,99475.45
2018-11-29T10:32:12.922Z,99470.78
2018-11-29T10:34:44.216Z,99472.71
2018-11-29T10:37:15.369Z,99465.52
2018-11-29T10:39:47.460Z,99463.22
2018-11-29T10:42:18.806Z,99454.73
2018-11-29T10:44:50.836Z,99452.97
2018-11-29T10:47:22.210Z,99457.83
2018-11-29T10:49:53.242Z,99449.05
2018-11-29T10:52:24.466Z,99452.98
2018-11-29T10:54:56.656Z,99452.23
2018-11-29T10:57:28.811Z,99446.55
2018-11-29T11:00:00.279Z,99447.81
2018-11-29T11:02:31.741Z,99438.72
2018-11-29T11:05:02.749Z,99436.55
2018-11-29T11:07:34.461Z,99439.12
2018-11-29T11:10:05.896Z,99422.20
2018-11-29T11:12:36.971Z,99433.57
2018-11-29T11:15:08.557Z,99428.39
2018-11-29T11:17:39.565Z,99425.86
2018-11-29T11:20:10.564Z,99421.30
2018-11-29T11:22:42.365Z,99415.03
2018-11-29T11:25:14.607Z,99412.45
2018-11-29T11:27:45.234Z,99403.88
2018-11-29T11:30:18.567Z,99399.22
2018-11-29T11:32:50.870Z,99406.70
2018-11-29T11:35:22.318Z,99408.39
2018-11-29T11:37:53.655Z,99406.75
2018-11-29T11:40:25.299Z,99403.34
2018-11-29T11:42:56.428Z,99403.69
2018-11-29T11:45:27.356Z,99404.23
2018-11-29T11:48:03.305Z,99399.09
2018-11-29T11:50:29.522Z,99390.09
2018-11-29T11:53:00.606Z,99381.30
2018-11-29T11:55:31.657Z,99377.38
2018-11-29T11:58:02.572Z,99377.33
2018-11-29T12:03:17.360Z,99375.14
2018-11-29T12:05:48.078Z,99382.00
2018-11-29T12:08:18.869Z,99373.88
2018-11-29T12:10:49.945Z,99374.06
2018-11-29T12:13:24.129Z,99371.78
2018-11-29T12:15:55.761Z,99363.13
2018-11-29T12:18:27.048Z,99363.77
2018-11-29T12:20:57.941Z,99355.30
2018-11-29T12:23:29.922Z,99345.77
2018-11-29T12:26:02.879Z,99337.82
2018-11-29T12:28:35.424Z,99337.55
2018-11-29T12:31:07.841Z,99339.63
2018-11-29T12:33:40.919Z,99327.73
2018-11-29T12:36:13.421Z,99319.87
2018-11-29T12:38:47.729Z,99321.27
2018-11-29T12:41:20.423Z,99314.73
2018-11-29T12:43:53.643Z,99317.23
2018-11-29T12:46:26.222Z,99310.10
2018-11-29T12:49:00.768Z,99319.77
2018-11-29T12:51:36.585Z,99316.44
2018-11-29T12:54:09.750Z,99311.12
2018-11-29T12:56:42.410Z,99313.41
2018-11-29T12:59:15.542Z,99309.05
2018-11-29T13:01:48.782Z,99300.53
2018-11-29T13:04:21.684Z,99295.42
2018-11-29T13:06:54.217Z,99301.09
2018-11-29T13:09:27.406Z,99297.41
2018-11-29T13:12:00.057Z,99293.52
2018-11-29T13:14:33.309Z,99291.78
2018-11-29T13:17:06.399Z,99295.40
2018-11-29T13:19:38.842Z,99292.28
2018-11-29T13:22:12.342Z,99289.45
2018-11-29T13:24:44.937Z,99285.09
2018-11-29T13:27:17.330Z,99286.80
2018-11-29T13:29:50.037Z,99286.49
2018-11-29T13:32:22.693Z,99285.97
2018-11-29T13:34:56.660Z,99283.48
2018-11-29T13:37:29.151Z,99285.00
2018-11-29T13:40:02.622Z,99288.60
2018-11-29T13:42:35.561Z,99299.52
2018-11-29T13:45:10.564Z,99298.71
2018-11-29T13:47:44.300Z,99305.81
2018-11-29T14:02:55.610Z,99292.05
2018-11-29T14:05:26.390Z,99299.55
2018-11-29T14:07:57.637Z,99301.37
2018-11-29T14:10:28.949Z,99300.28
2018-11-29T14:13:00.410Z,99298.39
2018-11-29T14:15:31.681Z,99304.16
2018-11-29T14:18:02.642Z,99300.20
2018-11-29T14:20:35.536Z,99304.42
2018-11-29T14:23:05.431Z,99299.52
2018-11-29T14:25:36.468Z,99307.42
2018-11-29T14:28:08.631Z,99314.59
2018-11-29T14:30:40.222Z,99311.09
2018-11-29T14:33:10.983Z,99306.30
2018-11-29T14:35:43.261Z,99305.31
2018-11-29T14:38:14.720Z,99304.23
2018-11-29T14:40:45.463Z,99313.19
2018-11-29T14:43:17.740Z,99308.87
2018-11-29T14:45:48.956Z,99308.52
2018-11-29T14:48:20.099Z,99303.58
2018-11-29T14:50:51.812Z,99297.42
2018-11-29T14:53:23.200Z,99297.70
2018-11-29T14:55:54.316Z,99294.96
2018-11-29T14:58:26.129Z,99293.13
2018-11-29T15:00:57.854Z,99298.33
2018-11-29T15:03:28.926Z,99294.59
2018-11-29T15:05:59.950Z,99288.27
2018-11-29T15:08:30.945Z,99281.55
2018-11-29T15:11:01.732Z,99290.91
2018-11-29T15:13:32.529Z,99308.40
2018-11-29T15:16:03.640Z,99299.14
2018-11-29T15:18:34.782Z,99303.01
2018-11-29T15:21:06.105Z,99302.86
2018-11-29T15:23:37.443Z,99299.65
2018-11-29T15:26:08.592Z,99302.05
2018-11-29T15:28:39.974Z,99301.25
2018-11-29T15:31:11.564Z,99308.77
2018-11-29T15:33:42.707Z,99309.08
2018-11-29T15:36:14.176Z,99305.05
2018-11-29T15:38:45.302Z,99304.91
2018-11-29T15:41:18.198Z,99311.36
2018-11-29T15:43:47.680Z,99318.61
2018-11-29T15:46:19.251Z,99327.47
2018-11-29T15:48:50.291Z,99323.41
2018-11-29T15:51:22.878Z,99332.01
2018-11-29T15:53:54.358Z,99346.42
2018-11-29T15:56:26.012Z,99348.36
2018-11-29T15:58:57.167Z,99350.56
2018-11-29T16:01:27.914Z,99352.65
2018-11-29T16:03:58.896Z,99356.82
2018-11-29T16:06:29.733Z,99353.48
2018-11-29T16:09:15.467Z,99359.02
2018-11-29T16:11:46.370Z,99363.95
2018-11-29T16:14:18.573Z,99359.13
2018-11-29T16:16:49.939Z,99361.28
2018-11-29T16:19:21.558Z,99362.14
2018-11-29T16:21:52.753Z,99361.83
2018-11-29T16:24:23.717Z,99360.53
2018-11-29T16:26:55.099Z,99370.12
2018-11-29T16:29:26.230Z,99365.05
2018-11-29T16:31:57.516Z,99367.05
2018-11-29T16:34:29.704Z,99379.06
2018-11-29T16:37:00.929Z,99371.94
2018-11-29T16:39:32.034Z,99376.67
2018-11-29T16:42:03.353Z,99382.92
2018-11-29T16:44:34.266Z,99381.98
2018-11-29T16:47:05.809Z,99382.94
2018-11-29T16:49:37.832Z,99387.95
2018-11-29T16:52:09.303Z,99376.98
2018-11-29T16:54:41.459Z,99380.59
2018-11-29T16:57:12.877Z,99374.92
2018-11-29T16:59:44.150Z,99374.80
2018-11-29T17:02:15.994Z,99373.87
2018-11-29T17:04:47.386Z,99369.56
2018-11-29T17:07:18.478Z,99373.79
2018-11-29T17:09:50.626Z,99380.48
2018-11-29T17:12:22.801Z,99379.39
2018-11-29T17:14:55.402Z,99379.70
2018-11-29T17:17:26.656Z,99385.31
2018-11-29T17:19:57.835Z,99375.00
2018-11-29T17:22:29.012Z,99373.25
2018-11-29T17:25:00.270Z,99374.48
2018-11-29T17:27:31.492Z,99388.50
2018-11-29T17:30:03.532Z,99384.14
2018-11-29T17:32:35.033Z,99386.14
2018-11-29T17:35:06.540Z,99378.44
2018-11-29T17:37:39.893Z,99370.73
2018-11-29T17:40:14.839Z,99361.40
2018-11-29T17:42:46.412Z,99367.87
2018-11-29T17:45:21.046Z,99369.50
2018-11-29T17:47:54.217Z,99364.25
2018-11-29T17:50:32.373Z,99363.33
2018-11-29T17:53:05.971Z,99361.73
2018-11-29T17:55:38.621Z,99362.29
2018-11-29T17:58:13.833Z,99374.22
2018-11-29T18:00:48.373Z,99376.42
2018-11-29T18:03:24.483Z,99379.83
2018-11-29T18:05:57.033Z,99371.86
2018-11-29T18:08:30.010Z,99364.59
2018-11-29T18:11:02.483Z,99373.27
2018-11-29T18:13:36.880Z,99377.55
2018-11-29T18:16:10.508Z,99376.90
2018-11-29T18:18:43.949Z,99362.98
2018-11-29T18:21:17.065Z,99363.13
2018-11-29T18:23:49.394Z,99366.00
2018-11-29T18:26:22.426Z,99367.55
2018-11-29T18:28:55.181Z,99365.72
2018-11-29T18:31:27.776Z,99376.33
2018-11-29T18:34:01.509Z,99378.48
2018-11-29T18:36:34.271Z,99378.17
2018-11-29T18:39:09.295Z,99378.01
2018-11-29T18:41:42.200Z,99382.36
2018-11-29T18:44:15.370Z,99386.77
2018-11-29T18:46:48.123Z,99395.27
2018-11-29T18:49:21.325Z,99390.70
2018-11-29T18:51:55.057Z,99390.34
2018-11-29T18:54:27.505Z,99396.44
2018-11-29T18:57:00.497Z,99389.05
2018-11-29T18:59:33.613Z,99379.12
2018-11-29T19:02:07.490Z,99388.05
2018-11-29T19:04:40.883Z,99386.88
2018-11-29T19:07:13.413Z,99380.29
2018-11-29T19:09:47.726Z,99385.53
2018-11-29T19:12:21.181Z,99376.75
2018-11-29T19:14:53.526Z,99373.38
2018-11-29T19:17:26.971Z,99372.26
2018-11-29T19:20:01.839Z,99366.09
2018-11-29T19:22:34.801Z,99364.87
2018-11-29T19:25:09.249Z,99365.82
2018-11-29T19:27:42.323Z,99366.45
2018-11-29T19:30:30.917Z,99363.31
2018-11-29T19:33:17.149Z,99353.06
2018-11-29T19:35:46.414Z,99352.55
2018-11-29T19:38:21.460Z,99349.31
2018-11-29T19:40:54.126Z,99350.70
2018-11-29T19:43:27.498Z,99357.17
2018-11-29T19:46:01.130Z,99362.75
2018-11-29T19:48:33.899Z,99370.72
2018-11-29T19:51:06.945Z,99378.98
2018-11-29T19:53:39.773Z,99381.28
2018-11-29T19:56:12.442Z,99379.09
2018-11-29T19:58:45.285Z,99383.67
2018-11-29T20:01:18.521Z,99374.75
2018-11-29T20:03:51.535Z,99370.70
2018-11-29T20:06:24.636Z,99368.06
2018-11-29T20:08:58.441Z,99368.69
2018-11-29T20:11:31.104Z,99369.56
2018-11-29T20:14:05.469Z,99376.61
2018-11-29T20:16:39.475Z,99372.73
2018-11-29T20:19:13.180Z,99372.94
2018-11-29T20:21:46.174Z,99369.77
2018-11-29T20:24:18.961Z,99366.19
2018-11-29T20:26:52.451Z,99363.42
2018-11-29T20:29:25.352Z,99378.70
2018-11-29T20:31:58.365Z,99364.20
2018-11-29T20:34:31.399Z,99371.10
2018-11-29T20:37:04.233Z,99363.11
2018-11-29T20:39:37.367Z,99369.24
2018-11-29T20:42:10.092Z,99364.71
2018-11-29T20:44:44.110Z,99373.66
2018-11-29T20:47:16.992Z,99376.46
2018-11-29T20:49:49.674Z,99374.67
2018-11-29T20:52:22.254Z,99370.27
2018-11-29T20:54:55.749Z,99362.22
2018-11-29T20:57:28.321Z,99362.71
2018-11-29T21:00:02.273Z,99373.52
2018-11-29T21:02:34.649Z,99378.38
2018-11-29T21:05:09.304Z,99382.73
2018-11-29T21:07:42.353Z,99385.05
2018-11-29T21:10:25.695Z,99381.31
2018-11-29T21:13:02.577Z,99378.91
2018-11-29T21:15:40.719Z,99369.58
2018-11-29T21:18:16.070Z,99376.41
2018-11-29T21:20:48.436Z,99381.56
2018-11-29T21:23:21.354Z,99379.40
2018-11-29T21:25:53.905Z,99377.13
2018-11-29T21:28:26.761Z,99378.80
2018-11-29T21:30:59.357Z,99378.62
2018-11-29T21:33:31.937Z,99379.02
2018-11-29T21:36:05.179Z,99379.74
2018-11-29T21:38:38.178Z,99373.66
2018-11-29T21:41:11.194Z,99371.89
2018-11-29T21:43:44.005Z,99366.20
2018-11-29T21:46:17.133Z,99371.17
2018-11-29T21:48:49.536Z,99369.89
2018-11-29T21:51:22.370Z,99372.77
2018-11-29T21:53:54.981Z,99371.07
2018-11-29T21:56:27.258Z,99368.36
2018-11-29T21:58:58.406Z,99365.39
2018-11-29T22:01:30.068Z,99362.47
2018-11-29T22:04:01.556Z,99359.16
2018-11-29T22:06:32.673Z,99358.95
2018-11-29T22:09:03.719Z,99368.28
2018-11-29T22:11:35.632Z,99374.76
2018-11-29T22:14:06.631Z,99366.23
2018-11-29T22:16:38.274Z,99368.82
2018-11-29T22:19:09.431Z,99381.11
2018-11-29T22:21:40.611Z,99382.55
2018-11-29T22:24:11.325Z,99379.88
2018-11-29T22:26:42.239Z,99375.89
2018-11-29T22:29:14.055Z,99379.94
2018-11-29T22:31:46.519Z,99377.41
2018-11-29T22:34:17.836Z,99378.17
2018-11-29T22:36:49.022Z,99374.13
2018-11-29T22:39:20.203Z,99377.02
2018-11-29T22:41:51.283Z,99379.16
2018-11-29T22:44:22.991Z,99368.02
2018-11-29T22:46:53.785Z,99375.67
2018-11-29T22:49:24.959Z,99384.06
2018-11-29T22:51:56.018Z,99387.06
2018-11-29T22:54:27.155Z,99380.29
2018-11-29T22:56:58.333Z,99380.29
2018-11-29T22:59:29.795Z,99376.92
2018-11-29T23:02:00.748Z,99381.78
2018-11-29T23:04:31.778Z,99383.13
2018-11-29T23:07:02.734Z,99390.98
2018-11-29T23:09:33.872Z,99386.09
2018-11-29T23:12:04.952Z,99368.75
2018-11-29T23:14:35.868Z,99364.66
2018-11-29T23:17:06.898Z,99370.05
2018-11-29T23:19:37.712Z,99363.75
2018-11-29T23:22:09.037Z,99362.52
2018-11-29T23:24:39.979Z,99360.42
2018-11-29T23:27:10.925Z,99364.66
2018-11-29T23:29:41.861Z,99369.90
2018-11-29T23:32:13.193Z,99368.80
2018-11-29T23:34:44.282Z,99368.97
2018-11-29T23:37:15.202Z,99366.06
2018-11-29T23:39:46.197Z,99371.33
2018-11-29T23:42:17.245Z,99371.42
2018-11-29T23:44:48.281Z,99373.14
2018-11-29T23:47:19.199Z,99367.61
2018-11-29T23:49:50.159Z,99373.95
2018-11-29T23:52:21.239Z,99373.56
2018-11-29T23:54:52.039Z,99363.36
2018-11-29T23:57:22.926Z,99359.94
2018-11-29T23:59:53.940Z,99356.42
